Time;durP1;ratioP1;P1;durP2;ratioP2;P2;SDS_P1;SDS_P2;PMS_P1;PMS_P2;Temp;Humidity;BMP_temperature;BMP_pressure;BME280_temperature;BME280_humidity;BME280_pressure;Samples;Min_cycle;Max_cycle;Signal;HPM_P1;HPM_P2
2022/08/28 00:02:48;;;;;;;10.00;9.00;;;21.10;99.90;;;;;;5065718;28;20413;-80
2022/08/28 00:05:38;;;;;;;11.53;9.13;;;21.10;99.90;;;;;;5026263;28;20423;-79
2022/08/28 00:08:45;;;;;;;10.00;9.00;;;21.10;99.90;;;;;;5011492;28;20416;-81
2022/08/28 00:11:31;;;;;;;11.10;9.83;;;21.10;99.90;;;;;;4946320;29;20423;-81
2022/08/28 00:14:19;;;;;;;12.23;9.87;;;21.00;99.90;;;;;;4934959;29;20496;-81
2022/08/28 00:17:06;;;;;;;8.27;7.47;;;21.00;99.90;;;;;;4948557;29;20424;-81
2022/08/28 00:19:54;;;;;;;11.13;9.90;;;21.00;99.90;;;;;;4948739;29;20508;-80
2022/08/28 00:23:02;;;;;;;9.40;8.50;;;20.90;99.90;;;;;;4934873;29;20423;-80
2022/08/28 00:25:52;;;;;;;9.60;8.70;;;21.00;99.90;;;;;;4939806;29;20484;-80
2022/08/28 00:29:16;;;;;;;10.60;9.30;;;21.00;99.90;;;;;;4919653;29;20430;-80
2022/08/28 00:32:25;;;;;;;19.57;9.60;;;21.00;99.90;;;;;;4887294;29;20410;-81
2022/08/28 00:35:11;;;;;;;8.43;7.70;;;21.00;99.90;;;;;;4881438;29;20509;-81
2022/08/28 00:38:22;;;;;;;11.60;8.80;;;21.00;99.90;;;;;;4879775;29;20499;-81
2022/08/28 00:41:19;;;;;;;18.27;9.10;;;21.00;99.90;;;;;;4866468;29;20530;-81
2022/08/28 00:44:25;;;;;;;9.10;8.20;;;21.00;99.90;;;;;;4866270;29;20812;-81
2022/08/28 00:47:12;;;;;;;14.50;8.97;;;21.00;99.90;;;;;;4840407;29;20450;-80
2022/08/28 00:50:01;;;;;;;11.20;8.50;;;21.00;99.90;;;;;;4839166;29;20447;-81
2022/08/28 00:52:53;;;;;;;9.17;8.27;;;21.00;99.90;;;;;;4837051;29;20438;-80
2022/08/28 00:56:04;;;;;;;9.60;7.60;;;20.90;99.90;;;;;;4865607;29;20601;-80
2022/08/28 00:58:55;;;;;;;9.37;8.10;;;20.90;99.90;;;;;;4931303;29;20503;-81
2022/08/28 01:01:39;;;;;;;9.67;8.00;;;20.90;99.90;;;;;;4907582;29;20453;-80
2022/08/28 01:04:28;;;;;;;10.80;8.00;;;20.80;99.90;;;;;;4927654;29;20429;-82
2022/08/28 01:07:14;;;;;;;10.50;8.53;;;20.90;99.90;;;;;;4926460;29;20414;-81
2022/08/28 01:10:17;;;;;;;12.60;8.10;;;20.80;99.90;;;;;;4945098;28;20485;-80
2022/08/28 01:13:05;;;;;;;10.07;9.07;;;20.80;99.90;;;;;;4958558;29;20416;-80
2022/08/28 01:15:53;;;;;;;9.77;8.63;;;20.80;99.90;;;;;;4931070;29;20418;-80
2022/08/28 01:18:39;;;;;;;12.50;9.70;;;20.80;99.90;;;;;;4942061;29;20224;-80
2022/08/28 01:21:37;;;;;;;9.50;8.63;;;20.80;99.90;;;;;;4942962;29;20432;-80
2022/08/28 01:24:22;;;;;;;9.40;8.60;;;20.80;99.90;;;;;;4929093;29;20933;-80
2022/08/28 01:27:07;;;;;;;12.90;7.70;;;20.80;99.90;;;;;;4929968;29;20785;-80
2022/08/28 01:29:54;;;;;;;10.30;8.60;;;20.70;99.90;;;;;;4976676;28;20408;-80
2022/08/28 01:33:04;;;;;;;8.70;7.90;;;20.80;99.90;;;;;;5021589;28;20475;-80
2022/08/28 01:36:11;;;;;;;9.40;8.53;;;20.70;99.90;;;;;;4986751;28;20430;-81
2022/08/28 01:39:10;;;;;;;10.73;8.00;;;20.70;99.90;;;;;;5009244;28;20525;-80
2022/08/28 01:41:59;;;;;;;10.70;8.67;;;20.60;99.90;;;;;;5012843;28;20419;-79
2022/08/28 01:44:50;;;;;;;13.70;8.87;;;20.60;99.90;;;;;;5033843;28;20391;-81
2022/08/28 01:47:36;;;;;;;10.53;8.07;;;20.50;99.90;;;;;;5015117;28;20923;-81
2022/08/28 01:50:25;;;;;;;8.90;7.80;;;20.60;99.90;;;;;;5009640;28;20409;-81
2022/08/28 01:53:16;;;;;;;12.97;9.97;;;20.60;99.90;;;;;;4956858;29;20489;-81
2022/08/28 01:56:07;;;;;;;10.30;8.27;;;20.50;99.90;;;;;;4944114;29;20486;-81
2022/08/28 01:58:53;;;;;;;10.70;8.37;;;20.60;99.90;;;;;;4970429;28;20521;-81
2022/08/28 02:01:44;;;;;;;8.17;7.40;;;20.60;99.90;;;;;;4951720;29;20406;-81
2022/08/28 02:04:35;;;;;;;10.13;8.27;;;20.60;99.90;;;;;;4972059;29;20410;-81
2022/08/28 02:07:41;;;;;;;8.83;7.97;;;20.60;99.90;;;;;;4943715;29;20400;-81
2022/08/28 02:10:31;;;;;;;12.70;8.30;;;20.60;99.90;;;;;;4929360;29;20415;-80
2022/08/28 02:13:15;;;;;;;10.00;9.10;;;20.50;99.90;;;;;;4921324;29;20413;-81
2022/08/28 02:16:04;;;;;;;9.80;8.90;;;20.50;99.90;;;;;;4942173;29;20436;-80
2022/08/28 02:18:49;;;;;;;10.83;8.20;;;20.50;99.90;;;;;;4947621;29;20495;-80
2022/08/28 02:21:36;;;;;;;11.13;8.90;;;20.50;99.90;;;;;;4935034;29;20853;-80
2022/08/28 02:24:21;;;;;;;10.53;9.43;;;20.50;99.90;;;;;;4915601;29;20488;-80
2022/08/28 02:27:08;;;;;;;11.40;8.00;;;20.50;99.90;;;;;;4928526;29;20415;-80
2022/08/28 02:30:17;;;;;;;10.17;8.60;;;20.50;99.90;;;;;;4928338;29;20433;-78
2022/08/28 02:33:06;;;;;;;10.90;8.83;;;20.50;99.90;;;;;;4893936;29;20438;-79
2022/08/28 02:35:55;;;;;;;8.20;7.50;;;20.40;99.90;;;;;;4893578;29;20435;-80
2022/08/28 02:38:41;;;;;;;11.80;8.27;;;20.50;99.90;;;;;;4893509;29;20523;-80
2022/08/28 02:41:31;;;;;;;13.57;8.70;;;20.50;99.90;;;;;;4919136;29;20553;-81
2022/08/28 02:44:18;;;;;;;9.37;8.27;;;20.50;99.90;;;;;;4923322;29;20479;-81
2022/08/28 02:47:04;;;;;;;10.20;7.73;;;20.40;99.90;;;;;;4924848;29;20428;-81
2022/08/28 02:50:11;;;;;;;10.23;9.13;;;20.40;99.90;;;;;;4912873;29;20438;-80
2022/08/28 02:53:22;;;;;;;9.60;8.60;;;20.40;99.90;;;;;;4887263;29;20510;-81
2022/08/28 02:56:19;;;;;;;9.33;8.40;;;20.40;99.90;;;;;;4874910;29;20426;-80
2022/08/28 02:59:07;;;;;;;8.97;8.10;;;20.30;99.90;;;;;;4863232;29;20518;-81
2022/08/28 03:01:54;;;;;;;10.00;9.10;;;20.30;99.90;;;;;;4894070;29;20446;-81
2022/08/28 03:04:41;;;;;;;9.07;7.83;;;20.30;99.90;;;;;;4888197;29;20475;-81
2022/08/28 03:07:28;;;;;;;10.90;8.30;;;20.40;99.90;;;;;;4888597;29;20539;-81
2022/08/28 03:10:17;;;;;;;10.40;8.80;;;20.40;99.90;;;;;;4888155;29;20413;-80
2022/08/28 03:13:12;;;;;;;9.50;8.50;;;20.30;99.90;;;;;;4869208;29;20507;-80
2022/08/28 03:15:59;;;;;;;10.30;9.40;;;20.30;99.90;;;;;;4857732;29;20837;-81
2022/08/28 03:18:46;;;;;;;11.77;9.73;;;20.30;99.90;;;;;;4855735;29;20476;-80
2022/08/28 03:21:33;;;;;;;11.83;8.83;;;20.30;99.90;;;;;;4869566;29;20462;-81
2022/08/28 03:24:19;;;;;;;13.73;9.33;;;20.30;99.90;;;;;;4888319;29;20417;-80
2022/08/28 03:27:09;;;;;;;14.37;9.20;;;20.30;99.90;;;;;;4889624;29;20463;-81
2022/08/28 03:29:57;;;;;;;10.33;8.93;;;20.30;99.90;;;;;;4888555;29;20426;-81
2022/08/28 03:33:25;;;;;;;11.33;9.23;;;20.20;99.90;;;;;;4907073;29;20472;-81
2022/08/28 03:36:21;;;;;;;10.10;8.80;;;20.20;99.90;;;;;;4911117;29;20408;-81
2022/08/28 03:39:26;;;;;;;9.00;8.07;;;20.20;99.90;;;;;;4910829;29;20477;-78
2022/08/28 03:42:14;;;;;;;8.10;7.30;;;20.20;99.90;;;;;;4825440;29;20413;-78
2022/08/28 03:45:21;;;;;;;9.70;8.13;;;20.20;99.90;;;;;;4806288;29;20409;-78
2022/08/28 03:48:16;;;;;;;11.38;8.93;;;20.10;99.90;;;;;;4835606;29;20503;-78
2022/08/28 03:51:06;;;;;;;10.40;8.47;;;20.10;99.90;;;;;;4841962;29;20560;-78
2022/08/28 03:53:54;;;;;;;9.53;8.60;;;20.00;99.90;;;;;;4833615;29;20441;-78
2022/08/28 03:56:42;;;;;;;8.50;7.63;;;20.00;99.90;;;;;;4806578;29;20441;-78
2022/08/28 03:59:51;;;;;;;11.03;9.93;;;20.00;99.90;;;;;;4782693;30;20543;-78
2022/08/28 04:02:39;;;;;;;8.93;8.00;;;20.00;99.90;;;;;;4785615;29;20820;-78
2022/08/28 04:05:27;;;;;;;9.80;8.87;;;20.00;99.90;;;;;;4801926;30;20449;-78
2022/08/28 04:08:17;;;;;;;9.90;9.00;;;20.00;99.90;;;;;;4778278;30;20456;-78
2022/08/28 04:11:25;;;;;;;10.00;9.00;;;20.00;99.90;;;;;;4747249;30;20421;-78
2022/08/28 04:14:10;;;;;;;8.67;7.77;;;20.10;99.90;;;;;;4752329;30;20420;-78
2022/08/28 04:16:57;;;;;;;10.70;8.70;;;20.10;99.90;;;;;;4817924;29;20420;-78
2022/08/28 04:19:46;;;;;;;9.57;8.17;;;20.10;99.90;;;;;;4834930;29;21009;-78
2022/08/28 04:22:32;;;;;;;10.47;9.13;;;20.10;99.90;;;;;;4833277;29;20436;-81
2022/08/28 04:25:18;;;;;;;8.93;8.13;;;20.10;99.90;;;;;;4842958;29;20855;-81
2022/08/28 04:28:27;;;;;;;11.10;10.00;;;20.10;99.90;;;;;;4883115;29;20432;-81
2022/08/28 04:31:19;;;;;;;12.40;8.83;;;20.10;99.90;;;;;;4869732;29;20444;-81
2022/08/28 04:34:07;;;;;;;13.70;10.07;;;20.10;99.90;;;;;;4846334;29;20406;-81
2022/08/28 04:36:54;;;;;;;10.80;8.73;;;20.10;99.90;;;;;;4870467;29;20415;-81
2022/08/28 04:39:49;;;;;;;9.03;8.00;;;20.10;99.90;;;;;;4885782;29;20469;-81
2022/08/28 04:42:35;;;;;;;12.33;9.10;;;20.00;99.90;;;;;;4906643;29;20507;-81
2022/08/28 04:45:23;;;;;;;10.13;9.10;;;20.00;99.90;;;;;;4927033;29;20418;-81
2022/08/28 04:48:08;;;;;;;11.30;8.07;;;20.00;99.90;;;;;;4954028;28;20409;-81
2022/08/28 04:50:54;;;;;;;9.87;8.87;;;20.00;99.90;;;;;;4971933;28;20448;-81
2022/08/28 04:53:44;;;;;;;9.33;8.33;;;20.00;99.90;;;;;;4984592;28;20445;-81
2022/08/28 04:56:30;;;;;;;8.60;7.80;;;20.00;99.90;;;;;;4983452;28;20420;-81
2022/08/28 04:59:15;;;;;;;12.67;8.20;;;20.00;99.90;;;;;;4999848;28;20468;-81
2022/08/28 05:02:01;;;;;;;9.10;8.20;;;20.00;99.90;;;;;;4959653;29;21024;-81
2022/08/28 05:04:47;;;;;;;9.47;8.47;;;19.90;99.90;;;;;;4959164;28;20477;-81
2022/08/28 05:07:34;;;;;;;10.57;8.40;;;19.90;99.90;;;;;;4959716;29;20402;-81
2022/08/28 05:10:45;;;;;;;9.87;8.50;;;19.90;99.90;;;;;;4921449;29;20486;-81
2022/08/28 05:13:34;;;;;;;10.87;8.80;;;20.00;99.90;;;;;;4923509;29;20981;-81
2022/08/28 05:16:20;;;;;;;10.07;8.90;;;20.00;99.90;;;;;;4983998;28;20843;-81
2022/08/28 05:19:05;;;;;;;10.57;7.80;;;20.00;99.90;;;;;;4968729;28;20461;-81
2022/08/28 05:21:53;;;;;;;12.43;9.07;;;20.00;99.90;;;;;;4981873;28;20421;-81
2022/08/28 05:24:39;;;;;;;10.90;8.17;;;19.90;99.90;;;;;;4954405;28;20473;-81
2022/08/28 05:27:25;;;;;;;10.30;8.63;;;19.90;99.90;;;;;;4979576;28;20405;-80
2022/08/28 05:30:31;;;;;;;11.53;8.63;;;19.90;99.90;;;;;;4948200;29;20522;-81
2022/08/28 05:33:18;;;;;;;8.00;7.17;;;19.90;99.90;;;;;;4953753;29;20411;-81
2022/08/28 05:36:14;;;;;;;9.17;7.37;;;19.90;99.90;;;;;;4944027;29;20415;-80
2022/08/28 05:39:02;;;;;;;9.90;8.20;;;19.90;99.90;;;;;;4933639;29;20468;-80
2022/08/28 05:42:10;;;;;;;11.00;8.87;;;19.90;99.90;;;;;;4920375;29;20518;-80
2022/08/28 05:44:57;;;;;;;11.53;7.80;;;20.00;99.90;;;;;;4897552;29;20405;-78
2022/08/28 05:47:44;;;;;;;16.43;8.73;;;19.90;99.90;;;;;;4902311;29;20416;-78
2022/08/28 05:50:30;;;;;;;12.37;8.93;;;20.00;99.90;;;;;;4915410;29;20758;-78
2022/08/28 05:53:24;;;;;;;8.67;7.93;;;20.00;99.90;;;;;;4875049;29;20423;-79
2022/08/28 05:56:54;;;;;;;13.53;7.73;;;20.00;99.90;;;;;;4880332;29;20526;-80
2022/08/28 05:59:38;;;;;;;11.07;7.97;;;20.10;99.90;;;;;;4878593;29;20480;-81
2022/08/28 06:02:24;;;;;;;14.10;8.70;;;20.10;99.90;;;;;;4839254;29;20416;-81
2022/08/28 06:05:10;;;;;;;12.60;8.70;;;20.10;99.90;;;;;;4839161;29;20441;-81
2022/08/28 06:07:59;;;;;;;10.30;8.20;;;20.10;99.90;;;;;;4851850;29;20489;-81
2022/08/28 06:10:44;;;;;;;12.27;8.30;;;20.10;99.90;;;;;;4852162;29;20424;-81
2022/08/28 06:13:29;;;;;;;13.10;7.80;;;20.10;99.90;;;;;;4851349;29;20416;-81
2022/08/28 06:16:15;;;;;;;11.57;8.77;;;20.10;99.90;;;;;;4839500;29;20419;-81
2022/08/28 06:19:00;;;;;;;11.90;7.90;;;20.10;99.90;;;;;;4853439;29;20470;-81
2022/08/28 06:21:47;;;;;;;10.30;8.20;;;20.10;99.90;;;;;;4815227;29;20536;-81
2022/08/28 06:24:45;;;;;;;10.83;8.07;;;20.10;99.90;;;;;;4864794;29;20437;-81
2022/08/28 06:27:35;;;;;;;9.60;8.30;;;20.10;99.90;;;;;;4869431;29;20880;-81
2022/08/28 06:30:23;;;;;;;7.77;6.97;;;20.10;99.90;;;;;;4884885;29;20562;-81
2022/08/28 06:33:32;;;;;;;13.80;8.40;;;20.10;99.90;;;;;;4910018;29;20448;-80
2022/08/28 06:36:41;;;;;;;8.80;7.90;;;20.10;99.90;;;;;;4906580;29;20417;-81
2022/08/28 06:39:27;;;;;;;10.50;7.73;;;20.10;99.90;;;;;;4893607;29;20508;-81
2022/08/28 06:42:13;;;;;;;8.97;7.07;;;20.10;99.90;;;;;;4925579;29;21083;-80
2022/08/28 06:44:59;;;;;;;9.50;8.10;;;20.10;99.90;;;;;;4912250;29;20836;-81
2022/08/28 06:47:49;;;;;;;8.30;7.60;;;20.10;99.90;;;;;;4912573;29;20408;-81
2022/08/28 06:50:40;;;;;;;10.13;8.60;;;20.20;99.90;;;;;;4925804;29;20450;-81
2022/08/28 06:53:29;;;;;;;8.37;7.13;;;20.30;99.90;;;;;;4910113;29;20475;-81
2022/08/28 06:56:18;;;;;;;7.20;6.50;;;20.30;99.90;;;;;;4910256;29;20466;-81
2022/08/28 06:59:06;;;;;;;14.70;7.60;;;20.40;99.90;;;;;;4909713;29;20464;-80
2022/08/28 07:01:53;;;;;;;10.63;6.87;;;20.30;99.90;;;;;;4928541;29;20457;-82
2022/08/28 07:04:40;;;;;;;9.80;6.57;;;20.50;99.90;;;;;;4946982;29;20444;-80
2022/08/28 07:07:45;;;;;;;8.83;6.67;;;20.50;99.90;;;;;;4932912;29;20499;-77
2022/08/28 07:10:32;;;;;;;12.90;7.10;;;20.50;99.90;;;;;;4919505;28;20520;-78
2022/08/28 07:13:36;;;;;;;11.00;8.20;;;20.60;99.90;;;;;;4921832;29;20415;-78
2022/08/28 07:16:25;;;;;;;15.07;8.20;;;20.60;99.90;;;;;;4905749;29;20484;-78
2022/08/28 07:19:13;;;;;;;10.03;6.90;;;20.70;99.90;;;;;;4899691;29;20463;-78
2022/08/28 07:22:25;;;;;;;10.33;7.17;;;20.70;99.90;;;;;;4928546;29;20417;-78
2022/08/28 07:25:13;;;;;;;10.03;6.90;;;20.50;99.90;;;;;;4882168;29;20436;-79
2022/08/28 07:28:01;;;;;;;10.23;7.67;;;20.60;99.90;;;;;;4914990;29;20421;-77
2022/08/28 07:31:02;;;;;;;14.70;7.37;;;20.40;99.90;;;;;;4927910;29;21072;-78
2022/08/28 07:33:48;;;;;;;11.73;6.80;;;20.50;99.90;;;;;;4902779;29;20415;-77
2022/08/28 07:36:35;;;;;;;9.97;6.80;;;20.70;99.90;;;;;;4928508;29;20452;-79
2022/08/28 07:39:21;;;;;;;14.03;7.10;;;20.70;99.90;;;;;;4909805;29;20443;-81
2022/08/28 07:42:07;;;;;;;8.37;7.10;;;20.80;99.90;;;;;;4921717;29;20441;-82
2022/08/28 07:45:13;;;;;;;9.73;6.77;;;20.90;99.90;;;;;;4920632;29;20510;-81
2022/08/28 07:48:19;;;;;;;10.87;7.00;;;21.10;99.90;;;;;;4902937;29;20504;-81
2022/08/28 07:51:06;;;;;;;9.80;6.90;;;21.20;99.90;;;;;;4876454;29;20479;-80
2022/08/28 07:54:08;;;;;;;12.17;6.27;;;21.10;99.90;;;;;;4915274;29;20561;-81
2022/08/28 07:57:01;;;;;;;11.43;6.00;;;21.20;99.90;;;;;;4917207;29;20496;-81
2022/08/28 07:59:51;;;;;;;10.00;5.53;;;21.30;99.90;;;;;;4903930;29;21037;-81
2022/08/28 08:02:36;;;;;;;9.80;6.00;;;21.20;99.90;;;;;;4904212;29;20485;-80
2022/08/28 08:05:25;;;;;;;7.20;6.20;;;21.20;99.90;;;;;;4866967;29;20771;-80
2022/08/28 08:08:31;;;;;;;13.30;6.40;;;21.40;99.90;;;;;;4852728;29;20415;-80
2022/08/28 08:11:20;;;;;;;6.83;5.97;;;21.50;99.90;;;;;;4882231;29;20422;-81
2022/08/28 08:14:09;;;;;;;12.17;5.70;;;21.50;99.90;;;;;;4837511;29;20426;-79
2022/08/28 08:17:03;;;;;;;12.77;5.90;;;21.50;99.90;;;;;;4889063;29;20410;-80
2022/08/28 08:20:09;;;;;;;11.07;6.00;;;21.50;99.90;;;;;;4900675;29;20521;-81
2022/08/28 08:22:53;;;;;;;14.57;6.03;;;21.40;99.90;;;;;;4872849;29;20497;-80
2022/08/28 08:25:38;;;;;;;11.63;6.47;;;21.60;99.90;;;;;;4871953;29;20414;-81
2022/08/28 08:28:26;;;;;;;6.20;5.60;;;21.70;99.90;;;;;;4887429;29;20406;-80
2022/08/28 08:31:20;;;;;;;7.70;5.47;;;21.70;99.90;;;;;;4923047;29;20432;-81
2022/08/28 08:34:11;;;;;;;7.20;6.43;;;21.70;99.90;;;;;;4904147;29;20764;-80
2022/08/28 08:37:00;;;;;;;11.50;5.60;;;21.80;99.90;;;;;;4891399;29;20417;-80
2022/08/28 08:39:46;;;;;;;9.10;6.17;;;21.50;99.90;;;;;;4917288;29;20492;-79
2022/08/28 08:42:33;;;;;;;9.90;5.67;;;21.70;99.90;;;;;;4917839;29;20429;-80
2022/08/28 08:45:30;;;;;;;9.73;5.90;;;21.90;99.90;;;;;;4917434;29;20430;-82
2022/08/28 08:48:38;;;;;;;7.33;4.73;;;21.80;99.90;;;;;;4898800;29;20413;-80
2022/08/28 08:51:38;;;;;;;10.40;6.00;;;22.10;99.90;;;;;;4920716;29;20449;-80
2022/08/28 08:54:23;;;;;;;6.80;5.43;;;21.90;99.90;;;;;;4893729;29;20448;-81
2022/08/28 08:57:10;;;;;;;16.30;4.87;;;22.10;99.90;;;;;;4927888;28;20476;-81
2022/08/28 09:00:17;;;;;;;7.57;5.77;;;21.80;99.90;;;;;;4975653;28;20471;-82
2022/08/28 09:03:18;;;;;;;10.03;5.47;;;21.80;99.90;;;;;;5000304;28;20419;-81
2022/08/28 09:06:13;;;;;;;12.43;8.97;;;21.70;99.90;;;;;;4988999;28;20408;-80
2022/08/28 09:09:04;;;;;;;6.20;5.40;;;21.80;99.90;;;;;;4985594;28;20552;-80
2022/08/28 09:12:03;;;;;;;12.00;6.87;;;22.00;99.90;;;;;;4973395;28;20605;-80
2022/08/28 09:15:04;;;;;;;9.30;5.13;;;21.60;99.90;;;;;;4972307;28;20460;-79
2022/08/28 09:18:07;;;;;;;6.90;5.23;;;21.50;99.90;;;;;;5003809;28;20968;-81
2022/08/28 09:20:57;;;;;;;8.93;7.80;;;21.50;99.90;;;;;;4971617;28;20437;-79
2022/08/28 09:24:01;;;;;;;17.90;11.60;;;21.60;99.90;;;;;;4931559;28;20513;-79
2022/08/28 09:26:59;;;;;;;15.00;7.70;;;21.00;99.90;;;;;;4972571;28;20441;-78
2022/08/28 09:30:02;;;;;;;13.20;9.77;;;20.70;99.90;;;;;;4975796;28;20445;-78
2022/08/28 09:32:59;;;;;;;9.30;5.90;;;21.30;99.90;;;;;;4997047;28;20501;-78
2022/08/28 09:35:44;;;;;;;5.53;5.00;;;21.50;99.90;;;;;;4979475;28;20397;-80
2022/08/28 09:38:35;;;;;;;9.40;5.73;;;21.60;99.90;;;;;;4943741;28;20406;-79
2022/08/28 09:44:52;;;;;;;8.47;7.60;;;21.90;99.90;;;;;;4964843;29;20475;-80
2022/08/28 09:47:45;;;;;;;7.17;5.93;;;21.90;99.90;;;;;;4987702;28;20440;-82
2022/08/28 09:50:39;;;;;;;10.00;5.70;;;22.30;99.90;;;;;;4976416;28;20980;-82
2022/08/28 09:53:27;;;;;;;10.40;5.40;;;22.80;99.90;;;;;;5001703;28;20420;-81
2022/08/28 09:56:32;;;;;;;13.30;5.93;;;23.50;99.90;;;;;;5001638;28;20436;-83
2022/08/28 09:59:19;;;;;;;6.10;5.30;;;23.60;99.90;;;;;;5020487;28;20474;-83
2022/08/28 10:02:24;;;;;;;17.57;8.23;;;22.90;99.90;;;;;;5020839;28;20439;-83
2022/08/28 10:05:15;;;;;;;9.50;7.30;;;22.10;99.90;;;;;;5060173;28;20818;-82
2022/08/28 10:08:20;;;;;;;6.07;4.87;;;22.70;99.90;;;;;;5060322;28;20393;-83
2022/08/28 10:11:29;;;;;;;7.87;5.60;;;23.40;99.90;;;;;;5100644;28;20404;-83
2022/08/28 10:14:30;;;;;;;13.60;6.07;;;24.00;99.90;;;;;;5102821;28;20403;-82
2022/08/28 10:17:41;;;;;;;7.17;5.47;;;24.40;99.90;;;;;;5123520;28;20466;-83
2022/08/28 10:20:44;;;;;;;12.00;6.53;;;24.30;99.90;;;;;;5125506;28;20532;-82
2022/08/28 10:24:04;;;;;;;26.93;5.73;;;23.40;99.90;;;;;;5123708;28;20899;-82
2022/08/28 10:27:10;;;;;;;13.67;6.23;;;23.80;99.90;;;;;;5112215;28;20769;-83
2022/08/28 10:30:06;;;;;;;14.37;12.83;;;23.80;99.90;;;;;;5125545;28;20395;-84
2022/08/28 10:33:30;;;;;;;6.63;5.57;;;24.50;99.90;;;;;;5129799;28;20457;-83
2022/08/28 10:36:23;;;;;;;10.73;8.57;;;23.30;99.90;;;;;;5118177;28;20430;-82
2022/08/28 10:39:27;;;;;;;10.40;5.73;;;23.40;99.90;;;;;;5129371;28;20596;-83
2022/08/28 10:42:13;;;;;;;8.03;4.87;;;23.50;99.90;;;;;;5129425;28;20526;-84
2022/08/28 10:45:05;;;;;;;6.20;5.30;;;23.90;99.90;;;;;;5128602;28;20395;-83
2022/08/28 10:47:56;;;;;;;7.80;5.70;;;24.20;99.90;;;;;;5128506;28;20414;-83
2022/08/28 10:50:48;;;;;;;7.53;4.80;;;24.90;99.90;;;;;;5125343;28;20460;-83
2022/08/28 10:53:49;;;;;;;10.67;5.43;;;24.10;99.90;;;;;;5122287;28;20465;-82
2022/08/28 10:56:39;;;;;;;14.63;5.30;;;24.50;99.90;;;;;;5122895;28;20426;-84
2022/08/28 10:59:28;;;;;;;7.37;5.63;;;24.10;99.90;;;;;;5081198;27;20478;-82
2022/08/28 11:02:15;;;;;;;11.00;9.37;;;24.20;99.90;;;;;;5142311;27;20773;-83
2022/08/28 11:05:01;;;;;;;12.70;4.93;;;24.20;99.90;;;;;;5143271;27;20484;-82
2022/08/28 11:07:51;;;;;;;4.77;4.33;;;24.80;99.90;;;;;;5144884;27;20435;-83
2022/08/28 11:10:45;;;;;;;6.40;5.10;;;25.60;99.90;;;;;;5143162;27;20509;-83
2022/08/28 11:14:00;;;;;;;5.70;4.10;;;26.10;99.90;;;;;;5113888;27;20920;-81
2022/08/28 11:16:48;;;;;;;5.87;4.97;;;26.70;99.90;;;;;;5127293;27;20435;-82
2022/08/28 11:19:59;;;;;;;6.53;4.57;;;26.20;99.90;;;;;;5143841;27;20465;-83
2022/08/28 11:22:51;;;;;;;6.70;5.20;;;25.00;99.90;;;;;;5143019;27;20472;-83
2022/08/28 11:25:49;;;;;;;15.80;14.13;;;25.30;99.90;;;;;;5144234;27;20706;-82
2022/08/28 11:28:46;;;;;;;8.80;5.90;;;25.70;99.90;;;;;;5126719;27;20837;-82
2022/08/28 11:31:35;;;;;;;7.33;3.93;;;26.70;99.90;;;;;;5143245;27;20409;-82
2022/08/28 11:35:00;;;;;;;5.33;4.93;;;27.70;99.90;;;;;;5131516;27;20447;-84
2022/08/28 11:37:48;;;;;;;8.63;6.10;;;27.60;99.90;;;;;;5146271;27;20447;-82
2022/08/28 11:40:52;;;;;;;6.10;4.67;;;26.30;99.90;;;;;;5130621;27;20846;-84
2022/08/28 11:43:40;;;;;;;5.10;4.67;;;27.70;99.90;;;;;;5144202;27;20494;-82
2022/08/28 11:46:31;;;;;;;7.37;5.30;;;27.90;99.90;;;;;;5143674;27;20427;-84
2022/08/28 11:49:38;;;;;;;5.70;4.77;;;27.40;99.90;;;;;;5126294;27;20499;-81
2022/08/28 11:52:56;;;;;;;8.17;4.13;;;27.10;99.90;;;;;;5130378;27;20396;-82
2022/08/28 11:56:10;;;;;;;4.40;4.00;;;26.50;99.90;;;;;;5142911;27;20386;-81
2022/08/28 11:59:07;;;;;;;8.53;4.27;;;27.20;99.90;;;;;;5142413;27;20441;-83
2022/08/28 12:01:53;;;;;;;5.00;4.47;;;27.00;99.90;;;;;;5100619;28;20450;-83
2022/08/28 12:04:41;;;;;;;7.53;4.37;;;26.80;99.90;;;;;;5100326;28;20467;-82
2022/08/28 12:07:35;;;;;;;5.57;4.77;;;26.60;99.90;;;;;;5057443;28;20415;-82
2022/08/28 12:10:56;;;;;;;6.07;5.57;;;26.50;99.90;;;;;;5101086;28;20817;-79
2022/08/28 12:13:46;;;;;;;5.70;4.10;;;26.30;99.90;;;;;;5095783;28;20422;-82
2022/08/28 12:17:10;;;;;;;6.03;5.03;;;26.00;99.90;;;;;;5077743;28;20407;-83
2022/08/28 12:20:14;;;;;;;5.80;4.37;;;25.90;99.90;;;;;;5094720;28;20470;-83
2022/08/28 12:23:02;;;;;;;11.87;5.10;;;25.70;99.90;;;;;;5105202;28;20508;-82
2022/08/28 12:25:47;;;;;;;4.97;4.47;;;25.70;99.90;;;;;;5089749;28;20403;-82
2022/08/28 12:28:55;;;;;;;6.80;5.10;;;25.70;99.90;;;;;;5105190;28;20471;-82
2022/08/28 12:32:10;;;;;;;5.47;4.70;;;25.70;99.90;;;;;;5058116;28;20920;-82
2022/08/28 12:35:21;;;;;;;4.93;4.63;;;25.70;99.90;;;;;;5058878;28;20457;-81
2022/08/28 12:38:08;;;;;;;4.47;3.97;;;25.60;99.90;;;;;;5060633;28;20402;-81
2022/08/28 12:40:56;;;;;;;10.17;5.37;;;25.60;99.90;;;;;;5062006;28;20488;-82
2022/08/28 12:43:53;;;;;;;5.13;4.47;;;25.60;99.90;;;;;;5062230;28;20530;-81
2022/08/28 12:46:42;;;;;;;6.37;4.93;;;25.70;99.90;;;;;;5060115;28;20456;-82
2022/08/28 12:49:30;;;;;;;5.07;4.67;;;25.50;99.90;;;;;;5047221;28;20442;-82
2022/08/28 12:52:21;;;;;;;9.33;5.80;;;25.40;99.90;;;;;;5012977;28;20464;-81
2022/08/28 12:55:11;;;;;;;6.60;4.43;;;25.50;99.90;;;;;;5064686;28;20474;-81
2022/08/28 12:58:20;;;;;;;4.77;4.37;;;25.60;99.90;;;;;;5035254;28;20483;-82
2022/08/28 13:01:11;;;;;;;5.10;4.70;;;26.00;99.90;;;;;;5022420;28;20497;-82
2022/08/28 13:04:01;;;;;;;4.90;4.50;;;26.20;99.90;;;;;;5067289;28;20474;-81
2022/08/28 13:06:47;;;;;;;6.23;5.63;;;25.70;99.90;;;;;;5053006;28;20564;-81
2022/08/28 13:09:33;;;;;;;6.03;4.93;;;26.00;99.90;;;;;;5052742;28;20400;-81
2022/08/28 13:12:27;;;;;;;6.00;4.87;;;26.00;99.90;;;;;;5066945;28;20427;-81
2022/08/28 13:15:33;;;;;;;4.80;4.40;;;25.90;99.90;;;;;;5038272;28;20420;-81
2022/08/28 13:18:49;;;;;;;6.43;5.70;;;26.00;99.90;;;;;;5053327;28;20447;-82
2022/08/28 13:21:59;;;;;;;5.17;4.77;;;25.70;99.90;;;;;;5022867;28;20407;-79
2022/08/28 13:24:46;;;;;;;7.00;4.80;;;25.80;99.90;;;;;;4982690;28;20405;-82
2022/08/28 13:27:33;;;;;;;8.63;4.73;;;26.10;99.90;;;;;;4911594;29;20484;-80
2022/08/28 13:30:34;;;;;;;11.33;6.97;;;25.60;99.90;;;;;;4899989;29;20511;-78
2022/08/28 13:33:40;;;;;;;5.93;5.40;;;24.80;99.90;;;;;;4915533;29;20440;-80
2022/08/28 13:36:26;;;;;;;6.17;5.67;;;24.60;99.90;;;;;;4931874;29;20463;-82
2022/08/28 13:39:13;;;;;;;11.27;7.27;;;24.50;99.90;;;;;;4891156;29;20479;-81
2022/08/28 13:42:10;;;;;;;5.90;5.40;;;24.90;99.90;;;;;;4908492;29;20415;-80
2022/08/28 13:44:55;;;;;;;11.57;6.33;;;25.40;99.90;;;;;;4953848;29;20499;-81
2022/08/28 13:47:40;;;;;;;5.73;5.17;;;25.50;99.90;;;;;;4967847;29;20410;-79
2022/08/28 13:50:26;;;;;;;4.50;4.03;;;25.20;99.90;;;;;;4969178;29;20434;-82
2022/08/28 13:53:12;;;;;;;11.90;8.80;;;25.50;99.90;;;;;;4930338;29;20437;-81
2022/08/28 13:56:22;;;;;;;10.53;9.43;;;25.20;99.90;;;;;;4931570;29;20437;-81
2022/08/28 13:59:08;;;;;;;10.20;5.57;;;25.00;99.90;;;;;;4993948;28;20608;-82
2022/08/28 14:05:27;;;;;;;7.90;6.50;;;24.70;99.90;;;;;;4931545;29;20412;-81
2022/08/28 14:08:33;;;;;;;7.87;6.60;;;24.70;99.90;;;;;;4908368;29;20746;-81
2022/08/28 14:11:40;;;;;;;15.73;12.77;;;24.80;99.90;;;;;;4908759;29;20408;-81
2022/08/28 14:14:48;;;;;;;8.43;7.53;;;25.10;99.90;;;;;;4880334;29;20402;-81
2022/08/28 14:17:33;;;;;;;7.93;7.10;;;25.10;99.90;;;;;;4889449;29;20432;-83
2022/08/28 14:20:17;;;;;;;9.23;6.50;;;24.90;99.90;;;;;;4885226;29;20570;-83
2022/08/28 14:23:22;;;;;;;5.80;4.90;;;25.20;99.90;;;;;;4886607;29;20481;-81
2022/08/28 14:26:06;;;;;;;6.90;4.83;;;25.40;99.90;;;;;;4866931;29;20553;-82
2022/08/28 14:28:50;;;;;;;5.47;4.60;;;25.50;99.90;;;;;;4855386;29;20579;-83
2022/08/28 14:31:35;;;;;;;13.40;7.10;;;25.60;99.90;;;;;;4855802;29;20799;-81
2022/08/28 14:34:22;;;;;;;42.30;30.10;;;25.30;99.90;;;;;;4868255;29;20502;-84
2022/08/28 14:37:07;;;;;;;9.60;8.60;;;25.10;99.90;;;;;;4886767;29;20470;-82
2022/08/28 14:39:51;;;;;;;6.00;4.80;;;25.00;99.90;;;;;;4889483;29;20530;-82
2022/08/28 14:42:36;;;;;;;10.50;5.57;;;25.10;99.90;;;;;;4888584;29;20486;-82
2022/08/28 14:45:23;;;;;;;5.40;4.93;;;24.90;99.90;;;;;;4875436;29;20418;-81
2022/08/28 14:48:14;;;;;;;13.17;8.60;;;25.00;99.90;;;;;;4854440;29;20437;-81
2022/08/28 14:51:18;;;;;;;7.50;5.47;;;24.90;99.90;;;;;;4902508;29;20435;-82
2022/08/28 14:54:25;;;;;;;8.97;5.53;;;25.10;99.90;;;;;;4947024;28;20415;-79
2022/08/28 14:57:11;;;;;;;5.73;4.40;;;25.10;99.90;;;;;;5018910;28;20437;-82
2022/08/28 15:00:40;;;;;;;5.00;4.60;;;25.50;99.90;;;;;;4981032;28;20529;-81
2022/08/28 15:03:25;;;;;;;5.53;4.47;;;25.70;99.90;;;;;;4963289;29;20545;-81
2022/08/28 15:06:31;;;;;;;4.40;4.00;;;25.30;99.90;;;;;;4962483;29;20470;-81